Time;durP1;ratioP1;P1;durP2;ratioP2;P2;SDS_P1;SDS_P2;PMS_P1;PMS_P2;Temp;Humidity;BMP_temperature;BMP_pressure;BME280_temperature;BME280_humidity;BME280_pressure;Samples;Min_cycle;Max_cycle;Signal;HPM_P1;HPM_P2
2023/05/30 00:01:58;;;;;;;;;6.00;4.67;;;;;16.17;55.58;101914.56;5042384;28;45310;-81
2023/05/30 00:04:26;;;;;;;;;7.00;5.33;;;;;16.39;55.48;101967.69;5056736;28;45435;-82
2023/05/30 00:06:52;;;;;;;;;5.00;3.33;;;;;16.14;55.52;101917.41;5040360;28;45491;-81
2023/05/30 00:09:18;;;;;;;;;8.00;7.00;;;;;16.37;54.86;101979.41;5040581;28;46585;-82
2023/05/30 00:11:43;;;;;;;;;6.00;6.00;;;;;16.18;55.58;101936.81;5060032;28;45305;-81
2023/05/30 00:14:08;;;;;;;;;4.33;3.00;;;;;16.61;56.02;102026.22;5059786;28;45348;-81
2023/05/30 00:16:45;;;;;;;;;6.67;5.00;;;;;16.14;56.73;101965.44;5052907;28;45534;-81
2023/05/30 00:19:10;;;;;;;;;5.33;5.00;;;;;16.12;56.29;101954.00;5041518;28;48027;-83
2023/05/30 00:21:36;;;;;;;;;7.00;5.67;;;;;16.10;56.33;101971.88;5040725;28;45375;-80
2023/05/30 00:24:02;;;;;;;;;5.33;3.67;;;;;16.27;56.98;101984.38;5044490;28;45338;-80
2023/05/30 00:26:27;;;;;;;;;7.33;4.67;;;;;16.49;56.53;102018.84;5061065;28;45325;-81
2023/05/30 00:28:52;;;;;;;;;8.00;4.67;;;;;16.25;56.24;101993.41;5061645;28;45431;-80
2023/05/30 00:31:18;;;;;;;;;2.00;2.00;;;;;16.29;57.11;102009.19;5037481;28;54370;-80
2023/05/30 00:33:46;;;;;;;;;5.33;4.00;;;;;16.28;56.87;102023.47;5063595;28;45565;-80
2023/05/30 00:36:12;;;;;;;;;5.00;3.00;;;;;16.30;57.26;102031.38;5057068;28;45824;-79
2023/05/30 00:38:39;;;;;;;;;5.67;5.00;;;;;16.35;57.95;102045.38;5054555;28;45937;-79
2023/05/30 00:41:04;;;;;;;;;6.67;4.33;;;;;16.28;56.58;102033.28;5049566;28;45401;-81
2023/05/30 00:43:30;;;;;;;;;3.00;3.00;;;;;16.21;58.07;102023.84;5038825;28;45800;-81
2023/05/30 00:45:56;;;;;;;;;4.67;3.00;;;;;16.21;57.13;102027.41;5038951;28;45372;-80
2023/05/30 00:48:22;;;;;;;;;6.33;4.33;;;;;16.17;57.21;102026.69;5041227;28;47189;-80
2023/05/30 00:50:49;;;;;;;;;4.00;4.00;;;;;16.02;58.19;102014.13;5053038;28;45493;-80
2023/05/30 00:53:15;;;;;;;;;6.33;4.00;;;;;15.99;57.54;102005.41;5054508;28;45310;-80
2023/05/30 00:55:41;;;;;;;;;7.67;6.00;;;;;16.04;57.68;102014.91;5056508;28;45566;-79
2023/05/30 00:58:07;;;;;;;;;7.00;5.00;;;;;16.05;57.41;102030.00;5056725;28;45399;-79
2023/05/30 01:00:39;;;;;;;;;9.00;6.00;;;;;16.04;57.73;102022.91;5053516;28;45594;-81
2023/05/30 01:03:05;;;;;;;;;7.67;5.00;;;;;15.87;57.79;102014.03;5034835;28;45335;-80
2023/05/30 01:05:31;;;;;;;;;5.00;5.00;;;;;15.89;58.77;102013.03;5034953;28;45555;-80
2023/05/30 01:07:56;;;;;;;;;6.00;5.00;;;;;15.90;59.60;102021.88;5057020;28;45344;-80
2023/05/30 01:10:23;;;;;;;;;6.00;3.67;;;;;15.91;58.85;102026.25;5039388;28;45610;-81
2023/05/30 01:12:59;;;;;;;;;4.67;4.00;;;;;15.85;58.52;102019.44;5039951;28;46039;-78
2023/05/30 01:15:32;;;;;;;;;5.00;5.00;;;;;15.84;58.64;102025.72;5057041;28;45615;-81
2023/05/30 01:18:14;;;;;;;;;4.67;3.67;;;;;15.77;58.71;102016.28;5051375;28;45430;-82
2023/05/30 01:20:42;;;;;;;;;4.00;4.00;;;;;15.74;58.47;102020.94;5037422;28;45620;-82
2023/05/30 01:23:22;;;;;;;;;5.33;5.33;;;;;15.73;60.18;102024.53;5057227;28;45348;-80
2023/05/30 01:26:07;;;;;;;;;6.67;3.33;;;;;15.65;59.07;102014.22;5056687;28;45313;-81
2023/05/30 01:28:37;;;;;;;;;4.00;2.50;;;;;15.42;59.02;101998.44;5058195;28;45415;-81
2023/05/30 01:31:04;;;;;;;;;7.67;5.67;;;;;15.48;60.29;102009.69;5057598;28;45596;-83
2023/05/30 01:33:30;;;;;;;;;6.33;4.00;;;;;15.52;59.72;102021.97;5031103;28;45365;-83
2023/05/30 01:35:56;;;;;;;;;8.00;4.67;;;;;15.49;59.87;102019.44;5039289;28;45856;-82
2023/05/30 01:38:22;;;;;;;;;7.00;3.67;;;;;15.54;59.94;102030.72;5055777;28;45797;-80
2023/05/30 01:40:55;;;;;;;;;4.67;4.67;;;;;15.54;60.05;102044.06;5056586;28;45370;-80
2023/05/30 01:43:29;;;;;;;;;6.00;5.00;;;;;15.53;60.69;102047.69;5058113;28;45572;-81
2023/05/30 01:46:15;;;;;;;;;3.00;3.00;;;;;15.53;60.32;102044.16;5058360;28;45360;-81
2023/05/30 01:48:54;;;;;;;;;6.00;3.00;;;;;15.49;60.25;102045.22;5057426;28;45459;-82
2023/05/30 01:51:40;;;;;;;;;4.67;4.00;;;;;15.40;60.32;102032.31;5056676;28;45461;-83
2023/05/30 01:54:08;;;;;;;;;4.00;3.00;;;;;15.44;60.61;102045.44;5051910;28;45390;-81
2023/05/30 01:56:34;;;;;;;;;8.67;6.00;;;;;15.38;60.06;102045.69;5054216;28;45450;-81
2023/05/30 01:59:03;;;;;;;;;7.33;6.00;;;;;15.37;60.73;102037.78;5039956;28;45761;-81
2023/05/30 02:01:29;;;;;;;;;5.00;4.00;;;;;15.42;60.07;102052.63;5040722;28;45242;-82
2023/05/30 02:03:55;;;;;;;;;4.00;4.00;;;;;15.39;60.53;102046.56;5061575;28;45480;-82
2023/05/30 02:06:22;;;;;;;;;6.00;6.00;;;;;15.37;60.54;102044.00;5042842;28;45297;-82
2023/05/30 02:08:47;;;;;;;;;5.00;4.00;;;;;14.86;60.63;101978.00;5042096;28;47197;-82
2023/05/30 02:11:18;;;;;;;;;6.33;4.33;;;;;15.10;61.38;102032.81;5060476;28;45756;-82
2023/05/30 02:13:48;;;;;;;;;6.67;4.33;;;;;14.95;61.18;102020.19;5043561;28;45445;-82
2023/05/30 02:16:15;;;;;;;;;6.67;5.00;;;;;15.28;62.22;102056.91;5056755;28;45326;-82
2023/05/30 02:18:41;;;;;;;;;7.33;4.33;;;;;14.64;61.78;101966.59;5058148;28;45518;-82
2023/05/30 02:21:07;;;;;;;;;5.00;5.00;;;;;14.80;61.51;101996.91;5030956;28;45392;-83
2023/05/30 02:23:36;;;;;;;;;8.33;3.67;;;;;14.78;62.00;102000.59;5036737;28;45457;-81
2023/05/30 02:26:09;;;;;;;;;5.33;5.33;;;;;14.54;62.80;101978.59;5035426;28;45335;-82
2023/05/30 02:28:37;;;;;;;;;4.67;4.67;;;;;14.79;62.64;102011.16;5057665;28;47107;-82
2023/05/30 02:31:02;;;;;;;;;7.00;6.00;;;;;14.76;62.72;102003.31;5057264;28;45475;-81
2023/05/30 02:33:39;;;;;;;;;5.33;4.67;;;;;14.53;63.07;101985.72;5039646;28;45487;-80
2023/05/30 02:36:15;;;;;;;;;3.00;3.00;;;;;14.95;63.29;102051.31;5056533;28;45269;-80
2023/05/30 02:38:40;;;;;;;;;7.33;5.00;;;;;14.72;63.33;102012.41;5053865;28;45485;-81
2023/05/30 02:41:05;;;;;;;;;6.00;3.67;;;;;14.48;63.44;101989.53;5057530;28;45449;-80
2023/05/30 02:43:31;;;;;;;;;4.33;4.00;;;;;14.55;64.68;101993.66;5057722;28;45653;-80
2023/05/30 02:46:04;;;;;;;;;6.33;5.00;;;;;14.25;63.06;101955.91;5056950;28;45288;-82
2023/05/30 02:48:29;;;;;;;;;6.33;5.00;;;;;14.82;64.30;102037.66;5056851;28;45731;-81
2023/05/30 02:50:55;;;;;;;;;8.00;5.33;;;;;14.30;63.51;101961.03;5054258;28;45499;-81
2023/05/30 02:53:26;;;;;;;;;7.33;4.00;;;;;14.40;63.59;101986.31;5054483;28;45818;-82
2023/05/30 02:55:52;;;;;;;;;5.00;3.67;;;;;14.40;63.97;101999.63;5042883;28;45536;-81
2023/05/30 02:58:17;;;;;;;;;5.00;5.00;;;;;14.30;64.33;101979.66;5060820;28;45673;-81
2023/05/30 03:00:48;;;;;;;;;5.00;3.00;;;;;14.54;65.08;102018.53;5043096;28;45439;-81
2023/05/30 03:03:19;;;;;;;;;4.33;3.00;;;;;14.27;64.50;101977.09;5043220;28;45330;-82
2023/05/30 03:05:47;;;;;;;;;3.00;3.00;;;;;14.53;63.97;102024.78;5043257;28;45518;-83
2023/05/30 03:08:15;;;;;;;;;3.33;3.33;;;;;14.69;64.12;102081.75;5058926;28;45316;-82
2023/05/30 03:10:43;;;;;;;;;5.33;4.00;;;;;14.46;64.35;102048.13;5061271;28;45577;-82
2023/05/30 03:13:09;;;;;;;;;6.00;4.00;;;;;14.12;64.59;101976.00;5059962;28;45445;-83
2023/05/30 03:15:34;;;;;;;;;3.33;3.33;;;;;14.19;64.57;101985.44;5060113;28;45367;-82
2023/05/30 03:18:00;;;;;;;;;4.33;4.33;;;;;14.20;64.97;102013.75;5059571;28;46359;-81
2023/05/30 03:20:26;;;;;;;;;4.00;4.00;;;;;13.96;65.36;101966.94;5058939;28;45462;-82
2023/05/30 03:22:51;;;;;;;;;4.67;3.00;;;;;14.09;64.88;102003.59;5042315;28;45451;-82
2023/05/30 03:25:17;;;;;;;;;3.33;3.33;;;;;14.25;64.99;102022.44;5059858;28;45700;-81
2023/05/30 03:27:49;;;;;;;;;5.00;5.00;;;;;14.01;64.75;102007.50;5053487;28;45629;-82
2023/05/30 03:30:15;;;;;;;;;3.67;3.00;;;;;13.95;65.27;101997.13;5059715;28;45528;-80
2023/05/30 03:32:41;;;;;;;;;5.33;4.00;;;;;13.71;65.57;101948.47;5060936;28;45451;-80
2023/05/30 03:35:07;;;;;;;;;7.33;5.33;;;;;14.27;65.57;102051.63;5042573;28;45422;-82
2023/05/30 03:37:35;;;;;;;;;7.00;4.33;;;;;13.82;65.66;101988.78;5052429;28;45397;-82
2023/05/30 03:40:00;;;;;;;;;4.00;3.00;;;;;13.69;65.38;101976.94;5045705;28;45579;-81
2023/05/30 03:42:26;;;;;;;;;4.33;4.33;;;;;13.80;65.67;102001.31;5041707;28;45365;-82
2023/05/30 03:44:57;;;;;;;;;6.00;3.00;;;;;13.95;66.43;102027.25;5025926;28;45606;-82
2023/05/30 03:47:25;;;;;;;;;4.00;3.67;;;;;13.86;65.65;102009.03;5046656;28;46252;-81
2023/05/30 03:49:53;;;;;;;;;3.33;3.33;;;;;13.96;65.99;102036.97;5025630;28;45259;-82
2023/05/30 03:52:21;;;;;;;;;3.00;3.00;;;;;13.78;66.26;102012.91;5031545;28;45343;-81
2023/05/30 03:54:54;;;;;;;;;3.67;2.00;;;;;13.57;65.52;101974.78;5042867;28;45443;-82
2023/05/30 03:57:20;;;;;;;;;4.00;4.00;;;;;13.51;66.68;101965.25;5050053;28;45733;-81
2023/05/30 03:59:46;;;;;;;;;3.67;3.00;;;;;13.73;66.36;101998.94;5031521;28;45485;-81
2023/05/30 04:02:11;;;;;;;;;4.00;4.00;;;;;13.71;66.95;102006.97;5025375;28;45430;-82
2023/05/30 04:04:37;;;;;;;;;6.00;4.00;;;;;13.95;66.34;102050.31;5021664;28;45419;-82
2023/05/30 04:07:05;;;;;;;;;5.67;4.00;;;;;14.13;65.94;102094.81;5023885;28;47561;-81
2023/05/30 04:09:31;;;;;;;;;4.67;3.67;;;;;13.62;65.95;102011.81;5020656;28;45560;-81
2023/05/30 04:11:58;;;;;;;;;5.33;4.00;;;;;13.60;66.04;101997.72;5047754;28;47567;-82
2023/05/30 04:14:24;;;;;;;;;6.00;4.00;;;;;13.53;66.58;101983.81;5042981;28;46939;-82
2023/05/30 04:16:51;;;;;;;;;6.00;4.00;;;;;13.48;66.79;101989.31;5003913;28;47749;-82
2023/05/30 04:19:22;;;;;;;;;4.00;3.67;;;;;13.63;66.97;102010.88;5052561;28;45536;-81
2023/05/30 04:21:47;;;;;;;;;5.67;4.00;;;;;13.41;66.37;101976.34;5041001;28;45487;-81
2023/05/30 04:24:14;;;;;;;;;1.67;1.00;;;;;13.92;65.96;102077.91;5048426;28;45382;-81
2023/05/30 04:26:39;;;;;;;;;4.67;3.67;;;;;13.51;65.58;102017.56;5019151;28;46173;-80
2023/05/30 04:29:04;;;;;;;;;5.00;3.33;;;;;13.67;65.50;102061.22;5036448;28;45352;-81
2023/05/30 04:31:30;;;;;;;;;4.00;4.00;;;;;13.63;66.08;102038.34;5041989;28;45893;-81
2023/05/30 04:33:55;;;;;;;;;7.00;3.33;;;;;13.42;66.60;102012.59;5018741;28;45378;-82
2023/05/30 04:36:23;;;;;;;;;4.67;4.33;;;;;13.55;67.43;102021.81;5022709;28;45352;-82
2023/05/30 04:38:49;;;;;;;;;6.00;3.00;;;;;13.75;66.18;102063.56;5054710;28;45387;-81
2023/05/30 04:41:20;;;;;;;;;4.67;3.00;;;;;13.43;65.99;102011.69;5049139;28;45518;-82
2023/05/30 04:43:48;;;;;;;;;9.00;3.67;;;;;13.79;65.80;102073.16;5032505;28;45531;-82
2023/05/30 04:46:21;;;;;;;;;6.00;3.33;;;;;13.76;65.27;102079.47;5050278;28;46735;-81
2023/05/30 04:48:48;;;;;;;;;4.00;3.33;;;;;13.52;65.11;102043.22;5058329;28;45412;-81
2023/05/30 04:51:14;;;;;;;;;3.67;2.67;;;;;14.02;65.54;102118.31;5059087;28;45289;-81
2023/05/30 04:53:40;;;;;;;;;6.00;3.00;;;;;14.05;66.32;102119.06;5057489;28;45517;-80
2023/05/30 04:56:06;;;;;;;;;5.00;4.00;;;;;14.10;65.82;102121.53;5057937;28;45403;-82
2023/05/30 04:58:31;;;;;;;;;5.33;5.00;;;;;13.98;65.38;102117.56;5040180;28;45447;-81
2023/05/30 05:00:58;;;;;;;;;2.67;1.00;;;;;13.98;64.83;102111.38;5058682;28;45349;-81
2023/05/30 05:03:24;;;;;;;;;4.00;2.33;;;;;13.97;64.76;102110.50;5037731;28;45447;-82
2023/05/30 05:05:50;;;;;;;;;2.00;2.00;;;;;14.06;64.72;102119.91;5058946;28;45438;-81
2023/05/30 05:08:16;;;;;;;;;5.00;3.00;;;;;14.04;64.67;102112.00;5052567;28;45555;-81
2023/05/30 05:10:41;;;;;;;;;3.33;3.00;;;;;14.08;65.40;102123.38;5059372;28;45364;-81
2023/05/30 05:13:06;;;;;;;;;3.00;3.00;;;;;14.05;64.69;102116.38;5059133;28;45442;-81
2023/05/30 05:15:32;;;;;;;;;5.00;4.00;;;;;14.11;64.05;102115.25;5042401;28;48159;-81
2023/05/30 05:17:58;;;;;;;;;4.67;3.00;;;;;14.18;64.30;102126.53;5055428;28;45419;-80
2023/05/30 05:20:24;;;;;;;;;5.33;4.00;;;;;14.10;64.79;102111.72;5060076;28;45427;-81
2023/05/30 05:22:50;;;;;;;;;4.00;4.00;;;;;14.32;64.84;102126.81;5041659;28;45251;-80
2023/05/30 05:25:15;;;;;;;;;3.00;3.00;;;;;14.34;63.72;102130.31;5041391;28;46528;-80
2023/05/30 05:27:41;;;;;;;;;3.33;3.00;;;;;14.33;64.25;102125.91;5058394;28;45267;-80
2023/05/30 05:30:08;;;;;;;;;5.00;3.00;;;;;14.46;64.06;102136.00;5038712;28;45475;-81
2023/05/30 05:32:36;;;;;;;;;6.00;4.00;;;;;14.48;63.52;102133.28;5040892;28;45404;-82
2023/05/30 05:35:02;;;;;;;;;5.67;4.00;;;;;14.19;63.50;102102.53;5038436;28;45479;-81
2023/05/30 05:37:27;;;;;;;;;3.33;3.33;;;;;14.53;63.51;102129.47;5056630;28;45487;-80
2023/05/30 05:39:53;;;;;;;;;3.00;3.00;;;;;14.65;63.60;102143.22;5040386;28;45456;-80
2023/05/30 05:42:18;;;;;;;;;7.00;3.00;;;;;14.66;62.74;102140.47;5058856;28;45314;-83
2023/05/30 05:44:44;;;;;;;;;4.67;4.67;;;;;14.62;64.15;102140.69;5040624;28;51597;-83
2023/05/30 05:47:09;;;;;;;;;4.33;3.33;;;;;14.63;61.33;102123.78;5054005;28;45330;-84
2023/05/30 05:49:34;;;;;;;;;0.00;0.00;;;;;14.53;62.30;102108.19;5056724;28;45322;-84
2023/05/30 05:52:00;;;;;;;;;5.67;3.67;;;;;14.81;63.91;102137.16;5034436;28;45856;-84
2023/05/30 05:54:25;;;;;;;;;4.33;3.00;;;;;14.68;61.95;102111.13;5053645;28;45498;-84
2023/05/30 05:56:50;;;;;;;;;5.67;3.33;;;;;14.99;61.47;102148.78;5041785;28;45288;-84
2023/05/30 05:59:16;;;;;;;;;4.00;3.00;;;;;15.05;62.07;102154.72;5041783;28;45339;-84
2023/05/30 06:01:42;;;;;;;;;7.33;4.00;;;;;15.11;60.78;102143.81;5053699;28;53460;-85
2023/05/30 06:04:11;;;;;;;;;4.67;3.33;;;;;15.11;60.66;102132.28;5059086;28;45585;-83
2023/05/30 06:06:37;;;;;;;;;4.00;3.67;;;;;15.25;60.37;102148.50;5039854;28;45776;-85
2023/05/30 06:09:04;;;;;;;;;4.00;3.67;;;;;15.30;60.36;102148.31;5034499;28;45329;-83
2023/05/30 06:11:29;;;;;;;;;5.00;4.00;;;;;15.28;59.33;102143.03;5055995;28;45961;-85
2023/05/30 06:13:54;;;;;;;;;4.00;4.00;;;;;15.38;59.79;102154.16;5058058;28;45324;-84
2023/05/30 06:16:20;;;;;;;;;4.00;4.00;;;;;15.40;58.92;102149.63;5035694;28;45509;-84
2023/05/30 06:18:45;;;;;;;;;5.33;4.00;;;;;15.33;58.97;102140.16;5035438;28;45515;-82
2023/05/30 06:21:10;;;;;;;;;7.00;4.00;;;;;15.44;59.11;102157.41;5036748;28;45514;-81
2023/05/30 06:23:36;;;;;;;;;5.00;3.00;;;;;15.35;59.40;102146.28;5033414;28;46310;-82
2023/05/30 06:26:02;;;;;;;;;5.67;3.00;;;;;15.23;58.25;102136.19;5035837;28;46082;-82
2023/05/30 06:28:27;;;;;;;;;3.00;3.00;;;;;15.36;59.06;102154.22;5039033;28;45413;-81
2023/05/30 06:30:52;;;;;;;;;4.33;3.00;;;;;15.49;59.38;102155.44;5056855;28;45341;-79
2023/05/30 06:33:18;;;;;;;;;4.00;3.00;;;;;15.40;58.55;102128.28;5056289;28;45508;-80
2023/05/30 06:35:43;;;;;;;;;3.33;2.33;;;;;15.55;58.58;102122.28;5055955;28;45467;-80
2023/05/30 06:38:08;;;;;;;;;4.33;4.33;;;;;15.72;57.88;102133.00;5056948;28;45376;-81
2023/05/30 06:40:34;;;;;;;;;3.00;3.00;;;;;15.89;58.53;102157.09;5039837;28;45380;-80
2023/05/30 06:42:59;;;;;;;;;5.00;3.00;;;;;15.83;58.02;102138.72;5052851;28;45953;-79
2023/05/30 06:45:25;;;;;;;;;5.33;3.00;;;;;16.06;58.28;102148.28;5039974;28;45445;-79
2023/05/30 06:47:50;;;;;;;;;5.00;4.00;;;;;16.00;56.70;102124.56;5044220;28;45557;-81
2023/05/30 06:50:16;;;;;;;;;6.67;3.00;;;;;16.05;57.49;102127.88;5060934;28;45447;-79
2023/05/30 06:52:41;;;;;;;;;7.67;3.67;;;;;16.35;57.84;102146.84;5040260;28;47773;-80
2023/05/30 06:55:07;;;;;;;;;3.00;3.00;;;;;16.30;57.25;102135.50;5059687;28;45412;-79
2023/05/30 06:57:36;;;;;;;;;5.00;4.00;;;;;16.31;56.42;102124.78;5058792;28;45387;-82
2023/05/30 07:00:03;;;;;;;;;3.67;3.67;;;;;16.43;56.53;102142.84;5039593;28;45575;-79
2023/05/30 07:02:28;;;;;;;;;6.00;3.67;;;;;16.45;55.71;102148.13;5057951;28;45410;-82
2023/05/30 07:04:54;;;;;;;;;9.33;4.00;;;;;16.56;56.25;102145.78;5043974;28;45344;-80
2023/05/30 07:07:19;;;;;;;;;7.00;4.67;;;;;16.76;56.14;102158.13;5056692;28;45401;-79
2023/05/30 07:09:47;;;;;;;;;4.00;4.00;;;;;16.74;56.95;102138.66;5052575;28;45566;-79
2023/05/30 07:12:13;;;;;;;;;8.00;3.33;;;;;17.03;55.65;102162.06;5038000;28;45424;-81
2023/05/30 07:14:39;;;;;;;;;4.00;4.00;;;;;17.05;55.63;102153.00;5034310;28;45389;-80
2023/05/30 07:17:06;;;;;;;;;3.33;3.33;;;;;17.17;55.26;102151.50;5046452;28;45359;-80
2023/05/30 07:19:32;;;;;;;;;4.67;3.00;;;;;17.43;56.46;102156.31;5028458;28;45447;-80
2023/05/30 07:21:57;;;;;;;;;6.00;5.00;;;;;17.62;55.91;102161.56;5028328;28;45789;-80
2023/05/30 07:24:22;;;;;;;;;3.67;3.67;;;;;17.72;54.97;102149.41;5051325;28;46617;-81
2023/05/30 07:26:50;;;;;;;;;3.00;3.00;;;;;17.74;53.30;102142.13;5056074;28;45339;-80
2023/05/30 07:29:15;;;;;;;;;4.00;4.00;;;;;17.80;53.89;102146.31;5057917;28;45313;-80
2023/05/30 07:31:41;;;;;;;;;5.00;3.00;;;;;17.53;53.43;102104.06;5047063;28;45373;-80
2023/05/30 07:34:06;;;;;;;;;8.00;5.00;;;;;17.95;53.99;102164.19;5032698;28;45406;-81
2023/05/30 07:36:32;;;;;;;;;7.00;3.67;;;;;17.94;53.37;102143.69;5057808;28;45473;-79
2023/05/30 07:38:57;;;;;;;;;5.33;5.00;;;;;17.97;53.48;102138.16;5035810;28;45352;-81
2023/05/30 07:41:23;;;;;;;;;9.67;5.00;;;;;18.07;53.44;102156.31;5051671;28;45358;-80
2023/05/30 07:43:48;;;;;;;;;9.00;4.00;;;;;18.09;53.53;102141.03;5047804;28;45294;-80
2023/05/30 07:46:14;;;;;;;;;5.00;5.00;;;;;18.27;53.14;102148.94;5060970;28;45432;-80
2023/05/30 07:48:40;;;;;;;;;4.33;3.67;;;;;18.26;53.61;102149.91;5057096;28;45401;-82
2023/05/30 07:51:06;;;;;;;;;6.00;4.00;;;;;18.38;52.73;102158.09;5042684;28;47343;-81
2023/05/30 07:53:31;;;;;;;;;3.33;3.33;;;;;18.42;52.21;102148.06;5055170;28;45325;-81
2023/05/30 07:55:58;;;;;;;;;5.00;5.00;;;;;18.49;52.78;102144.06;5052895;28;45256;-82
2023/05/30 07:58:24;;;;;;;;;7.67;6.33;;;;;18.63;53.07;102157.53;5060888;28;45546;-80
2023/05/30 08:00:49;;;;;;;;;7.00;5.33;;;;;18.81;52.54;102172.56;5060664;28;45617;-80
2023/05/30 08:03:15;;;;;;;;;2.67;2.67;;;;;18.87;52.24;102166.81;5047046;28;45357;-81
2023/05/30 08:05:40;;;;;;;;;7.00;4.00;;;;;18.92;51.58;102166.53;5061264;28;45281;-81
2023/05/30 08:08:07;;;;;;;;;5.00;4.00;;;;;19.06;51.88;102161.19;5029394;28;45527;-82
2023/05/30 08:10:32;;;;;;;;;4.67;4.67;;;;;19.16;52.33;102163.22;5060950;28;46054;-81
2023/05/30 08:12:58;;;;;;;;;3.00;3.00;;;;;19.35;51.15;102165.63;5039117;28;45303;-81
2023/05/30 08:15:23;;;;;;;;;4.00;4.00;;;;;19.46;51.18;102159.63;5037109;28;45311;-81
2023/05/30 08:17:49;;;;;;;;;5.00;3.33;;;;;19.42;50.87;102158.09;5063369;28;45295;-81
2023/05/30 08:20:16;;;;;;;;;5.33;3.67;;;;;19.48;50.20;102155.03;5063614;28;46289;-81
2023/05/30 08:22:41;;;;;;;;;1.33;0.33;;;;;19.67;50.02;102187.78;5049651;28;45296;-81
2023/05/30 08:25:07;;;;;;;;;6.33;3.67;;;;;19.68;50.15;102181.47;5059750;28;45369;-82
2023/05/30 08:27:34;;;;;;;;;4.00;1.67;;;;;19.60;50.38;102159.63;5037516;28;45352;-81
2023/05/30 08:30:00;;;;;;;;;4.33;2.67;;;;;19.75;49.38;102174.75;5052970;28;45471;-82
2023/05/30 08:32:28;;;;;;;;;5.67;4.33;;;;;19.76;50.51;102163.91;5058824;28;45473;-81
2023/05/30 08:34:53;;;;;;;;;5.00;3.67;;;;;19.92;49.65;102174.53;5039761;28;45345;-80
2023/05/30 08:37:19;;;;;;;;;4.33;3.00;;;;;19.96;49.27;102159.94;5053042;28;45578;-81
2023/05/30 08:39:44;;;;;;;;;5.67;2.00;;;;;20.14;50.16;102171.31;5022772;28;47472;-82
2023/05/30 08:42:12;;;;;;;;;4.00;3.00;;;;;20.29;47.87;102172.19;5034985;28;45600;-82
2023/05/30 08:44:38;;;;;;;;;4.00;4.00;;;;;20.35;47.76;102169.09;5051784;28;45486;-82
2023/05/30 08:47:06;;;;;;;;;8.00;3.00;;;;;20.42;48.13;102168.56;5059838;28;45542;-82
2023/05/30 08:49:35;;;;;;;;;3.67;3.67;;;;;20.50;49.61;102162.69;5047238;28;45464;-82
2023/05/30 08:52:03;;;;;;;;;5.00;3.33;;;;;20.70;48.56;102165.75;5039596;28;45321;-82
2023/05/30 08:54:44;;;;;;;;;4.00;4.00;;;;;20.60;49.42;102128.84;5038974;28;45302;-84
2023/05/30 08:57:23;;;;;;;;;4.67;1.67;;;;;20.74;47.01;102151.13;5041706;28;45459;-82
2023/05/30 08:59:49;;;;;;;;;5.67;3.67;;;;;20.84;48.04;102140.63;5053248;28;45383;-82
2023/05/30 09:02:16;;;;;;;;;3.67;3.67;;;;;20.97;49.15;102149.56;5031762;28;45519;-82
2023/05/30 09:04:42;;;;;;;;;5.67;3.00;;;;;21.02;47.83;102133.94;5046402;28;45440;-81
2023/05/30 09:07:11;;;;;;;;;3.33;3.33;;;;;21.12;48.00;102151.22;5048882;28;45340;-81
2023/05/30 09:09:41;;;;;;;;;3.67;1.67;;;;;21.29;47.91;102148.19;5057069;28;45281;-83
2023/05/30 09:12:08;;;;;;;;;4.33;2.67;;;;;21.44;45.88;102153.44;5038083;28;45477;-82
2023/05/30 09:14:34;;;;;;;;;5.33;3.00;;;;;21.42;47.09;102134.72;5058067;28;45325;-82
2023/05/30 09:16:59;;;;;;;;;2.67;2.67;;;;;21.65;48.37;102139.31;5058641;28;45433;-82
2023/05/30 09:19:26;;;;;;;;;6.00;3.33;;;;;21.78;47.02;102141.97;5059398;28;46164;-82
2023/05/30 09:21:51;;;;;;;;;5.00;3.67;;;;;21.94;47.19;102139.91;5029592;28;45266;-83
2023/05/30 09:24:17;;;;;;;;;2.33;2.33;;;;;21.93;45.95;102132.78;5024753;28;45513;-82
2023/05/30 09:27:01;;;;;;;;;1.67;1.33;;;;;21.88;47.23;102134.09;5039717;28;45428;-81
2023/05/30 09:29:27;;;;;;;;;5.67;3.33;;;;;21.85;46.59;102148.66;5047295;28;46027;-80
2023/05/30 09:31:52;;;;;;;;;5.00;2.67;;;;;21.78;46.13;102123.13;5038761;28;45322;-82
2023/05/30 09:34:18;;;;;;;;;8.00;3.00;;;;;21.87;46.09;102145.81;5058958;28;45359;-81
2023/05/30 09:36:54;;;;;;;;;9.00;5.00;;;;;21.54;45.92;102097.97;5043789;28;45370;-81
2023/05/30 09:39:20;;;;;;;;;3.33;2.67;;;;;21.79;46.55;102119.47;5027243;28;47035;-81
2023/05/30 09:41:46;;;;;;;;;1.67;1.67;;;;;21.99;45.85;102143.13;5034270;28;45879;-80
2023/05/30 09:44:12;;;;;;;;;4.00;2.67;;;;;21.94;46.57;102110.28;5049363;28;45377;-80
2023/05/30 09:46:38;;;;;;;;;5.00;3.00;;;;;22.27;44.25;102136.56;5047066;28;45520;-80
2023/05/30 09:49:13;;;;;;;;;1.67;1.00;;;;;22.51;45.99;102131.16;5052181;28;46306;-80
2023/05/30 09:51:39;;;;;;;;;4.00;3.00;;;;;22.53;45.79;102118.41;5030132;28;46257;-81
2023/05/30 09:54:06;;;;;;;;;6.00;2.67;;;;;22.67;44.76;102129.91;5062599;28;45464;-82
2023/05/30 09:56:42;;;;;;;;;5.00;3.67;;;;;22.80;44.43;102127.09;5039930;28;45394;-81
2023/05/30 09:59:09;;;;;;;;;4.67;3.00;;;;;22.74;44.32;102109.53;5051010;28;45377;-81
2023/05/30 10:01:50;;;;;;;;;5.00;2.67;;;;;22.87;44.97;102119.41;5026949;28;45461;-81
2023/05/30 10:04:20;;;;;;;;;3.33;3.00;;;;;22.89;45.07;102109.34;5044527;28;45461;-81
2023/05/30 10:06:51;;;;;;;;;6.00;3.00;;;;;22.89;43.90;102110.19;5053828;28;45376;-83
2023/05/30 10:09:20;;;;;;;;;3.33;3.00;;;;;23.13;43.18;102137.09;5050312;28;46351;-83
2023/05/30 10:11:46;;;;;;;;;3.00;3.00;;;;;23.22;44.62;102139.94;5059012;28;45387;-82
2023/05/30 10:14:32;;;;;;;;;5.00;5.00;;;;;23.16;43.02;102108.03;5039062;28;45453;-82
2023/05/30 10:17:04;;;;;;;;;2.00;1.67;;;;;23.06;44.14;102069.25;5031657;28;45507;-82
2023/05/30 10:19:37;;;;;;;;;6.00;2.33;;;;;23.47;43.66;102119.09;5037164;28;45736;-82
2023/05/30 10:22:07;;;;;;;;;3.33;3.00;;;;;23.33;43.47;102082.34;5033497;28;45367;-82
2023/05/30 10:24:33;;;;;;;;;2.67;2.67;;;;;23.33;41.78;102077.81;5032664;28;45401;-82
2023/05/30 10:27:03;;;;;;;;;2.00;2.00;;;;;23.07;41.64;102033.16;5040588;28;45511;-83
2023/05/30 10:29:37;;;;;;;;;4.67;2.67;;;;;23.41;43.26;102088.06;5058649;28;45669;-82
2023/05/30 10:32:04;;;;;;;;;3.00;1.67;;;;;23.55;42.18;102106.72;5044920;28;45305;-81
2023/05/30 10:34:56;;;;;;;;;1.33;1.33;;;;;23.46;42.90;102080.41;5031587;28;45350;-81
2023/05/30 10:37:23;;;;;;;;;3.33;3.00;;;;;23.66;41.89;102095.00;5038097;28;45552;-82
2023/05/30 10:40:06;;;;;;;;;4.33;3.00;;;;;23.44;41.64;102070.72;5039973;28;45517;-82
2023/05/30 10:42:50;;;;;;;;;4.67;3.00;;;;;23.36;42.92;102055.16;5046821;28;45327;-81
2023/05/30 10:45:27;;;;;;;;;5.67;3.00;;;;;23.82;42.09;102109.00;5036993;28;45268;-81
2023/05/30 10:47:58;;;;;;;;;3.00;3.00;;;;;24.01;40.78;102122.72;5035335;28;45654;-82
2023/05/30 10:50:34;;;;;;;;;2.00;2.00;;;;;23.76;42.66;102093.28;5043869;28;46747;-81
2023/05/30 10:53:00;;;;;;;;;4.00;2.00;;;;;23.70;40.60;102066.75;5044950;28;45559;-81
2023/05/30 10:55:28;;;;;;;;;2.00;2.00;;;;;23.92;40.81;102084.78;5037058;28;45475;-82
2023/05/30 10:57:53;;;;;;;;;2.67;2.67;;;;;23.89;41.29;102071.53;5050464;28;45511;-81
2023/05/30 11:00:27;;;;;;;;;5.33;4.00;;;;;24.11;40.80;102096.63;5036867;28;48464;-83
2023/05/30 11:02:54;;;;;;;;;5.00;3.67;;;;;23.88;40.60;102037.38;5033124;28;45267;-84
2023/05/30 11:05:27;;;;;;;;;4.33;3.67;;;;;23.79;40.11;102014.66;5047661;28;45492;-83
2023/05/30 11:07:52;;;;;;;;;3.33;3.00;;;;;24.09;40.09;102049.94;5042873;28;45557;-82
2023/05/30 11:10:29;;;;;;;;;3.00;3.00;;;;;24.47;41.08;102078.31;5056144;28;46271;-82
2023/05/30 11:13:08;;;;;;;;;4.00;4.00;;;;;24.12;40.17;102027.22;5052131;28;45522;-81
2023/05/30 11:15:34;;;;;;;;;2.67;2.00;;;;;24.21;38.75;102027.28;5039787;28;45437;-82
2023/05/30 11:18:00;;;;;;;;;2.00;2.00;;;;;24.23;39.75;102006.41;5039743;28;45511;-82
2023/05/30 11:20:26;;;;;;;;;4.00;2.00;;;;;24.83;41.00;102086.00;5062370;28;45777;-82
2023/05/30 11:23:01;;;;;;;;;2.00;1.00;;;;;25.12;40.09;102072.63;5062297;28;45381;-84
2023/05/30 11:25:34;;;;;;;;;4.00;3.00;;;;;25.31;37.70;102087.09;5045427;28;45362;-81
2023/05/30 11:28:52;;;;;;;;;3.00;1.67;;;;;24.98;37.70;102054.03;5062753;28;45378;-83